createdAt,value
2018-05-08T00:00:31.243Z,56.42
2018-05-08T00:06:26.217Z,61.36
2018-05-08T00:12:21.254Z,69.34
2018-05-08T00:18:16.215Z,66.64
2018-05-08T00:24:11.229Z,60.36
2018-05-08T00:30:06.217Z,52.17
2018-05-08T00:36:01.270Z,54.62
2018-05-08T00:41:56.265Z,55.6
2018-05-08T00:47:51.216Z,49.2
2018-05-08T00:53:46.237Z,51.39
2018-05-08T00:59:41.306Z,51.83
2018-05-08T01:05:36.252Z,49.62
2018-05-08T01:11:31.237Z,51.69
2018-05-08T01:17:26.284Z,53.54
2018-05-08T01:23:21.261Z,47.24
2018-05-08T01:29:16.274Z,51.05
2018-05-08T01:35:11.235Z,46.92
2018-05-08T01:41:06.271Z,39.39
2018-05-08T01:47:01.247Z,38.49
2018-05-08T01:52:56.321Z,43.35
2018-05-08T01:58:51.325Z,39.08
2018-05-08T02:04:46.381Z,42.7
2018-05-08T02:10:41.269Z,35.47
2018-05-08T02:16:36.308Z,40.21
2018-05-08T02:22:31.269Z,41.94
2018-05-08T02:28:26.305Z,31.92
2018-05-08T02:34:21.289Z,33.51
2018-05-08T02:40:16.287Z,35.01
2018-05-08T02:46:11.324Z,35.1
2018-05-08T02:52:06.276Z,44.86
2018-05-08T02:58:01.380Z,38.19
2018-05-08T03:03:56.319Z,35.52
2018-05-08T03:09:51.304Z,36.71
2018-05-08T03:15:46.345Z,32.7
2018-05-08T03:21:41.309Z,32.93
2018-05-08T03:27:36.329Z,34.02
2018-05-08T03:33:31.314Z,28.66
2018-05-08T03:39:26.315Z,29.75
2018-05-08T03:45:21.315Z,28.56
2018-05-08T03:51:16.320Z,30.25
2018-05-08T03:57:11.393Z,26.9
2018-05-08T04:03:06.324Z,27.04
2018-05-08T04:09:01.393Z,25.92
2018-05-08T04:14:56.369Z,29.86
2018-05-08T04:20:51.357Z,32.77
2018-05-08T04:26:46.361Z,31.03
2018-05-08T04:32:41.396Z,31.71
2018-05-08T04:38:36.362Z,28.83
2018-05-08T04:44:31.396Z,30.61
2018-05-08T04:50:26.371Z,33.1
2018-05-08T04:56:21.364Z,33.27
2018-05-08T05:02:16.384Z,34.2
2018-05-08T05:08:11.364Z,31.38
2018-05-08T05:14:06.380Z,33.21
2018-05-08T05:20:01.366Z,43.47
2018-05-08T05:25:56.412Z,67.89
2018-05-08T05:31:51.381Z,58.18
2018-05-08T05:37:46.371Z,51.36
2018-05-08T05:43:41.398Z,61.49
2018-05-08T05:49:36.378Z,69.75
2018-05-08T05:55:31.416Z,67.36
2018-05-08T06:01:26.389Z,69.07
2018-05-08T06:07:21.449Z,59.16
2018-05-08T06:13:16.406Z,63.03
2018-05-08T06:19:11.398Z,58.93
2018-05-08T06:25:06.392Z,59.42
2018-05-08T06:31:01.392Z,70.01
2018-05-08T06:36:56.458Z,58.28
2018-05-08T06:42:51.407Z,53.44
2018-05-08T06:48:46.393Z,69.7
2018-05-08T06:54:41.494Z,64.15
2018-05-08T07:00:36.517Z,61.09
2018-05-08T07:06:31.478Z,54.2
2018-05-08T07:12:26.488Z,56.2
2018-05-08T07:18:21.469Z,60.31
2018-05-08T07:24:16.453Z,62.97
2018-05-08T07:30:11.514Z,64.09
2018-05-08T07:36:06.460Z,62.1
2018-05-08T07:42:01.449Z,64.03
2018-05-08T07:47:56.450Z,72.13
2018-05-08T07:53:51.465Z,72.65
2018-05-08T07:59:46.484Z,74.83
2018-05-08T08:05:41.446Z,77.48
2018-05-08T08:11:36.470Z,70.43
2018-05-08T08:17:31.471Z,62.97
2018-05-08T08:23:26.478Z,61.2
2018-05-08T08:29:21.451Z,68.41
2018-05-08T08:35:16.496Z,59.63
2018-05-08T08:41:11.493Z,64.55
2018-05-08T08:47:06.526Z,64.06
2018-05-08T08:53:01.504Z,50.86
2018-05-08T08:58:56.502Z,54.55
2018-05-08T09:04:51.535Z,58.58
2018-05-08T09:10:46.489Z,56.4
2018-05-08T09:16:41.488Z,51.75
2018-05-08T09:22:36.547Z,56.94
2018-05-08T09:28:31.537Z,50.94
2018-05-08T09:34:26.534Z,49.1
2018-05-08T09:40:21.536Z,53.78
2018-05-08T09:46:16.493Z,31.36
2018-05-08T09:52:11.521Z,34.9
2018-05-08T09:58:06.533Z,32.13
2018-05-08T10:04:01.543Z,31.13
2018-05-08T10:09:56.538Z,36.85
2018-05-08T10:15:51.547Z,35.36
2018-05-08T10:21:46.556Z,40.84
2018-05-08T10:27:41.550Z,34.05
2018-05-08T10:33:36.574Z,28.07
2018-05-08T10:39:31.532Z,25.69
2018-05-08T10:45:26.561Z,23.23
2018-05-08T10:51:21.605Z,20.61
2018-05-08T10:57:16.573Z,23.16
2018-05-08T11:03:11.588Z,21.46
2018-05-08T11:09:06.573Z,18.57
2018-05-08T11:15:01.591Z,18.03
2018-05-08T11:20:56.601Z,20.36
2018-05-08T11:26:51.602Z,29.06
2018-05-08T11:32:46.627Z,15.99
2018-05-08T11:38:41.560Z,17.13
2018-05-08T11:44:36.696Z,17.81
2018-05-08T11:50:31.590Z,15.26
2018-05-08T11:56:26.621Z,9.48
2018-05-08T12:02:21.573Z,12.06
2018-05-08T12:08:16.648Z,15.71
2018-05-08T12:14:11.643Z,13.68
2018-05-08T12:20:06.601Z,14.21
2018-05-08T12:26:01.641Z,12.84
2018-05-08T12:31:56.654Z,15.88
2018-05-08T12:37:51.598Z,37.27
2018-05-08T12:43:46.627Z,16.68
2018-05-08T12:49:41.636Z,14.42
2018-05-08T12:55:36.612Z,23.92
2018-05-08T13:01:31.622Z,17.47
2018-05-08T13:07:26.616Z,16.62
2018-05-08T13:13:21.598Z,23.5
2018-05-08T13:19:16.619Z,20.83
2018-05-08T13:25:11.708Z,20.19
2018-05-08T13:31:06.711Z,19.95
2018-05-08T13:37:01.651Z,15.33
2018-05-08T13:42:56.718Z,16.03
2018-05-08T13:48:51.643Z,16.6
2018-05-08T13:54:47.004Z,13.9
2018-05-08T14:00:41.665Z,23.52
2018-05-08T14:06:36.748Z,18.85
2018-05-08T14:12:31.680Z,23.71
2018-05-08T14:18:26.696Z,21.23
2018-05-08T14:24:21.706Z,16.45
2018-05-08T14:30:16.691Z,18.77
2018-05-08T14:36:11.703Z,13.7
2018-05-08T14:42:06.683Z,16.95
2018-05-08T14:48:01.682Z,15.33
2018-05-08T14:53:56.693Z,7.58
2018-05-08T14:59:51.707Z,12.67
2018-05-08T15:05:46.673Z,8.2
2018-05-08T15:11:41.757Z,10.76
2018-05-08T15:17:36.706Z,10.65
2018-05-08T15:23:31.703Z,13.6
2018-05-08T15:29:26.734Z,13.57
2018-05-08T15:35:21.695Z,11.97
2018-05-08T15:41:16.724Z,10.56
2018-05-08T15:47:11.750Z,16.43
2018-05-08T15:53:06.702Z,8.49
2018-05-08T15:59:01.742Z,16.32
2018-05-08T16:04:56.747Z,10.12
2018-05-08T16:10:51.763Z,8.64
2018-05-08T16:16:46.775Z,10.65
2018-05-08T16:22:41.827Z,10.34
2018-05-08T16:28:36.797Z,7.72
2018-05-08T16:34:31.796Z,6.53
2018-05-08T16:40:26.777Z,5.87
2018-05-08T16:46:21.784Z,9.25
2018-05-08T16:52:16.757Z,7.79
2018-05-08T16:58:11.782Z,9.38
2018-05-08T17:04:06.765Z,10.34
2018-05-08T17:10:01.861Z,7.52
2018-05-08T17:15:56.796Z,11.79
2018-05-08T17:21:51.817Z,7.72
2018-05-08T17:27:46.790Z,9.21
2018-05-08T17:33:41.827Z,11.36
2018-05-08T17:39:36.796Z,11.96
2018-05-08T17:45:31.793Z,16.15
2018-05-08T17:51:26.839Z,9.39
2018-05-08T17:57:21.849Z,6.54
2018-05-08T18:03:16.771Z,6.54
2018-05-08T18:09:11.919Z,6.82
2018-05-08T18:15:06.873Z,7.39
2018-05-08T18:21:01.809Z,10.85
2018-05-08T18:26:56.799Z,9.56
2018-05-08T18:32:51.807Z,14.62
2018-05-08T18:38:46.790Z,14.79
2018-05-08T18:44:41.830Z,16.21
2018-05-08T18:50:36.823Z,19.33
2018-05-08T18:56:31.818Z,19.3
2018-05-08T19:02:26.847Z,16.35
2018-05-08T19:08:21.849Z,14.6
2018-05-08T19:14:16.825Z,24.3
2018-05-08T19:20:11.853Z,18.13
2018-05-08T19:26:06.844Z,14.5
2018-05-08T19:32:01.875Z,17.1
2018-05-08T19:37:56.853Z,21.94
2018-05-08T19:43:51.884Z,16.53
2018-05-08T19:49:46.864Z,14.14
2018-05-08T19:55:41.869Z,18.02
2018-05-08T20:01:36.852Z,14.66
2018-05-08T20:07:31.868Z,15.83
2018-05-08T20:13:26.889Z,18.93
2018-05-08T20:19:21.853Z,12.63
2018-05-08T20:25:16.879Z,14.29
2018-05-08T20:31:11.875Z,14.73
2018-05-08T20:37:06.912Z,13.82
2018-05-08T20:43:01.905Z,11.36
2018-05-08T20:48:56.924Z,9.74
2018-05-08T20:54:51.993Z,10.67
2018-05-08T21:00:46.899Z,9.48
2018-05-08T21:06:41.887Z,12.96
2018-05-08T21:12:36.889Z,12.59
2018-05-08T21:18:31.922Z,10.22
2018-05-08T21:24:27.054Z,10.67
2018-05-08T21:30:21.957Z,12.02
2018-05-08T21:36:16.905Z,13.24
2018-05-08T21:42:11.923Z,14.34
2018-05-08T21:48:06.913Z,10.35
2018-05-08T21:54:01.928Z,14.43
2018-05-08T21:59:56.940Z,14.81
2018-05-08T22:05:51.983Z,12.69
2018-05-08T22:11:46.916Z,12.93
2018-05-08T22:17:41.966Z,18.46
2018-05-08T22:23:36.981Z,11.42
2018-05-08T22:29:31.965Z,12.5
2018-05-08T22:35:26.965Z,13.18
2018-05-08T22:41:21.975Z,11.01
2018-05-08T22:47:16.963Z,12.27
2018-05-08T22:53:11.974Z,14.9
2018-05-08T22:59:06.979Z,12.2
2018-05-08T23:05:02.056Z,13.46
2018-05-08T23:10:56.974Z,9.33
2018-05-08T23:16:51.941Z,10.82
2018-05-08T23:22:46.992Z,11.48
2018-05-08T23:28:41.976Z,12.34
2018-05-08T23:34:36.981Z,10.82
2018-05-08T23:40:32.013Z,11.69
2018-05-08T23:46:26.994Z,14.79
2018-05-08T23:52:22.017Z,14.67
2018-05-08T23:58:17.019Z,11.61
